Time;durP1;ratioP1;P1;durP2;ratioP2;P2;SDS_P1;SDS_P2;PMS_P1;PMS_P2;Temp;Humidity;BMP_temperature;BMP_pressure;BME280_temperature;BME280_humidity;BME280_pressure;Samples;Min_cycle;Max_cycle;Signal;HPM_P1;HPM_P2
2023/12/21 00:00:43;;;;;;;3.80;2.08;;;;;;;6.56;80.74;100364.28;4180062;28;20124;-61
2023/12/21 00:02:46;;;;;;;10.55;6.15;;;;;;;6.58;80.73;100370.34;4181434;28;20308;-61
2023/12/21 00:04:49;;;;;;;7.05;4.60;;;;;;;6.55;81.13;100369.41;4181226;28;20037;-61
2023/12/21 00:06:53;;;;;;;5.95;3.28;;;;;;;6.67;80.88;100374.03;4180122;28;20124;-61
2023/12/21 00:08:56;;;;;;;7.18;2.50;;;;;;;6.65;80.83;100394.66;4180392;28;20449;-61
2023/12/21 00:10:59;;;;;;;4.97;2.20;;;;;;;6.69;80.38;100380.09;4179395;28;20072;-60
2023/12/21 00:13:02;;;;;;;8.98;5.38;;;;;;;6.75;80.72;100367.38;4175333;28;20087;-61
2023/12/21 00:15:06;;;;;;;8.07;3.25;;;;;;;6.74;80.61;100363.91;4180534;28;20043;-61
2023/12/21 00:17:09;;;;;;;7.15;3.85;;;;;;;6.74;80.58;100357.88;4178875;28;20033;-60
2023/12/21 00:19:12;;;;;;;3.92;2.10;;;;;;;6.88;80.32;100359.13;4168077;28;20538;-61
2023/12/21 00:21:14;;;;;;;6.38;2.35;;;;;;;6.77;80.72;100356.25;4179952;28;20037;-61
2023/12/21 00:23:19;;;;;;;8.75;4.45;;;;;;;6.72;80.68;100355.25;4182081;28;20047;-61
2023/12/21 00:25:21;;;;;;;3.15;2.17;;;;;;;6.71;80.45;100339.72;4182143;28;20049;-62
2023/12/21 00:27:24;;;;;;;11.45;7.25;;;;;;;6.73;80.78;100349.25;4182376;28;20453;-61
2023/12/21 00:29:27;;;;;;;8.73;5.68;;;;;;;6.80;80.76;100347.69;4182424;28;20037;-62
2023/12/21 00:31:29;;;;;;;5.95;3.20;;;;;;;6.70;80.62;100343.13;4179041;28;20037;-61
2023/12/21 00:33:32;;;;;;;5.35;2.95;;;;;;;6.66;81.16;100341.28;4182145;28;20041;-60
2023/12/21 00:35:35;;;;;;;3.90;1.90;;;;;;;6.64;81.16;100331.78;4181983;28;20495;-61
2023/12/21 00:37:39;;;;;;;3.50;1.98;;;;;;;6.64;81.42;100321.47;4181325;28;20045;-61
2023/12/21 00:39:43;;;;;;;3.67;2.00;;;;;;;6.77;80.61;100319.19;4172404;28;20476;-61
2023/12/21 00:41:45;;;;;;;7.70;2.10;;;;;;;6.84;80.86;100320.25;4177134;28;20051;-62
2023/12/21 00:43:48;;;;;;;5.85;1.50;;;;;;;6.79;80.86;100299.44;4180108;28;20119;-62
2023/12/21 00:45:51;;;;;;;2.25;1.20;;;;;;;6.69;80.60;100287.09;4171247;28;20418;-62
2023/12/21 00:47:55;;;;;;;2.33;1.23;;;;;;;6.50;81.34;100281.47;4182063;28;20140;-61
2023/12/21 00:49:58;;;;;;;2.88;1.65;;;;;;;6.67;81.12;100275.88;4179280;28;20037;-62
2023/12/21 00:52:01;;;;;;;1.70;1.20;;;;;;;6.69;81.42;100276.78;4179787;28;20033;-60
2023/12/21 00:54:04;;;;;;;1.30;1.13;;;;;;;6.55;81.82;100263.50;4181869;28;20087;-61
2023/12/21 00:56:08;;;;;;;2.78;1.02;;;;;;;6.57;81.25;100265.31;4181642;28;20041;-62
2023/12/21 00:58:11;;;;;;;4.90;1.33;;;;;;;6.57;81.65;100254.97;4180897;28;20036;-60
2023/12/21 01:00:15;;;;;;;1.83;1.00;;;;;;;6.56;82.02;100247.19;4179750;28;20048;-62
2023/12/21 01:02:18;;;;;;;1.88;1.08;;;;;;;6.69;81.23;100235.44;4175669;28;20531;-61
2023/12/21 01:04:21;;;;;;;3.15;1.10;;;;;;;6.73;80.86;100245.03;4180054;28;20041;-60
2023/12/21 01:06:24;;;;;;;3.40;1.23;;;;;;;6.61;81.14;100250.75;4181545;28;20037;-61
2023/12/21 01:08:27;;;;;;;1.63;1.30;;;;;;;6.55;81.57;100250.59;4180856;28;20068;-62
2023/12/21 01:10:31;;;;;;;1.40;1.00;;;;;;;6.68;81.50;100242.31;4179074;28;20037;-61
2023/12/21 01:12:36;;;;;;;1.13;1.02;;;;;;;6.61;81.52;100238.72;4181496;28;20067;-61
2023/12/21 01:14:39;;;;;;;3.13;1.10;;;;;;;6.57;81.54;100239.47;4170630;28;20135;-62
2023/12/21 01:16:42;;;;;;;2.03;1.20;;;;;;;6.56;81.77;100235.13;4180452;28;20040;-62
2023/12/21 01:18:46;;;;;;;2.55;1.23;;;;;;;6.60;81.48;100239.56;4171841;28;20037;-62
2023/12/21 01:20:49;;;;;;;3.10;1.27;;;;;;;6.55;81.85;100241.13;4177256;28;20128;-62
2023/12/21 01:22:52;;;;;;;2.63;1.13;;;;;;;6.62;81.83;100240.44;4180279;28;20032;-61
2023/12/21 01:24:55;;;;;;;6.10;1.27;;;;;;;6.63;81.76;100234.47;4177007;28;20083;-61
2023/12/21 01:26:58;;;;;;;2.15;1.10;;;;;;;6.67;81.30;100247.47;4165008;28;20041;-61
2023/12/21 01:29:02;;;;;;;1.67;1.15;;;;;;;6.61;81.57;100230.09;4165026;28;20076;-62
2023/12/21 01:31:05;;;;;;;2.75;1.40;;;;;;;6.62;81.45;100235.28;4176839;28;20033;-61
2023/12/21 01:33:08;;;;;;;2.47;1.17;;;;;;;6.51;81.59;100218.63;4176649;28;20550;-62
2023/12/21 01:35:11;;;;;;;1.17;1.08;;;;;;;6.63;81.16;100208.63;4163415;28;20523;-62
2023/12/21 01:37:14;;;;;;;2.42;1.13;;;;;;;6.59;81.43;100222.28;4173593;28;20041;-61
2023/12/21 01:39:17;;;;;;;1.60;1.23;;;;;;;6.44;81.49;100221.91;4180131;28;20056;-62
2023/12/21 01:41:22;;;;;;;2.35;1.40;;;;;;;6.47;82.01;100211.66;4173078;28;20495;-61
2023/12/21 01:43:24;;;;;;;4.00;1.88;;;;;;;6.39;82.26;100210.56;4179012;28;20041;-61
2023/12/21 01:45:29;;;;;;;1.30;1.20;;;;;;;6.37;82.26;100207.06;4178868;28;20086;-61
2023/12/21 01:47:31;;;;;;;1.60;1.13;;;;;;;6.46;82.37;100189.25;4180980;28;20037;-61
2023/12/21 01:49:35;;;;;;;1.20;1.08;;;;;;;6.45;82.06;100185.78;4180270;28;20045;-61
2023/12/21 01:51:38;;;;;;;2.45;1.30;;;;;;;6.60;81.59;100184.41;4173321;28;20102;-61
2023/12/21 01:53:41;;;;;;;1.58;1.10;;;;;;;6.79;80.75;100180.59;4179937;28;20037;-61
2023/12/21 01:55:46;;;;;;;2.75;1.30;;;;;;;6.62;81.09;100173.28;4180024;28;20037;-62
2023/12/21 01:57:49;;;;;;;2.17;1.17;;;;;;;6.46;81.71;100173.75;4170895;28;20077;-62
2023/12/21 01:59:51;;;;;;;3.17;1.40;;;;;;;6.33;82.63;100161.34;4167448;28;20471;-60
2023/12/21 02:01:56;;;;;;;1.98;1.00;;;;;;;6.37;83.02;100173.50;4178631;28;20037;-62
2023/12/21 02:03:59;;;;;;;2.83;1.48;;;;;;;6.35;82.88;100170.91;4175568;28;20036;-62
2023/12/21 02:06:01;;;;;;;3.58;1.60;;;;;;;6.44;82.59;100170.25;4177934;28;20080;-61
2023/12/21 02:08:05;;;;;;;1.80;1.10;;;;;;;6.45;82.28;100154.81;4179958;28;20391;-60
2023/12/21 02:10:09;;;;;;;3.10;1.17;;;;;;;6.50;82.05;100149.75;4179638;28;20503;-62
2023/12/21 02:12:12;;;;;;;1.30;1.20;;;;;;;6.51;82.60;100140.28;4175535;28;20103;-62
2023/12/21 02:14:15;;;;;;;2.10;1.00;;;;;;;6.46;82.38;100133.28;4163100;28;20381;-61
2023/12/21 02:16:27;;;;;;;1.38;0.98;;;;;;;6.46;82.23;100132.44;4175934;28;20037;-62
2023/12/21 02:18:32;;;;;;;2.53;1.15;;;;;;;6.51;82.40;100130.81;4194519;28;20052;-62
2023/12/21 02:20:35;;;;;;;2.33;0.80;;;;;;;6.61;81.85;100131.94;4178423;28;20048;-62
2023/12/21 02:22:42;;;;;;;2.33;1.00;;;;;;;6.59;81.96;100125.88;4179589;28;20037;-61
2023/12/21 02:24:47;;;;;;;3.45;1.40;;;;;;;6.52;82.36;100142.91;4179441;28;20056;-61
2023/12/21 02:26:50;;;;;;;1.98;1.15;;;;;;;6.44;82.84;100129.81;4169643;28;20446;-60
2023/12/21 02:28:53;;;;;;;2.55;1.05;;;;;;;6.46;83.01;100122.97;4168805;28;20040;-62
2023/12/21 02:30:55;;;;;;;3.58;1.10;;;;;;;6.52;82.86;100122.25;4178497;28;20510;-62
2023/12/21 02:32:57;;;;;;;3.72;1.20;;;;;;;6.52;82.35;100119.66;4168944;28;20092;-62
2023/12/21 02:35:00;;;;;;;2.40;1.38;;;;;;;6.57;82.40;100123.25;4163855;28;20041;-62
2023/12/21 02:37:04;;;;;;;;;;;;;;;6.55;82.51;100116.28;4164548;28;20037;-60
2023/12/21 02:39:07;;;;;;;5.35;1.55;;;;;;;6.52;82.58;100106.75;4169150;28;20019;-61
2023/12/21 02:41:13;;;;;;;2.38;1.10;;;;;;;6.59;82.54;100081.97;4178894;28;20094;-62
2023/12/21 02:43:16;;;;;;;1.33;0.75;;;;;;;6.61;82.78;100073.44;4180158;28;20037;-61
2023/12/21 02:45:19;;;;;;;3.03;1.08;;;;;;;6.66;82.58;100059.72;4178309;28;20037;-62
2023/12/21 02:47:21;;;;;;;1.67;0.98;;;;;;;6.60;82.33;100076.84;4179273;28;20037;-62
2023/12/21 02:49:24;;;;;;;2.30;1.00;;;;;;;6.68;82.20;100082.19;4178763;28;20395;-61
2023/12/21 02:51:27;;;;;;;2.13;1.20;;;;;;;6.75;82.43;100080.63;4179508;28;20124;-62
2023/12/21 02:53:30;;;;;;;2.78;1.15;;;;;;;6.79;81.87;100083.31;4179210;28;20057;-63
2023/12/21 02:55:35;;;;;;;2.85;2.15;;;;;;;6.68;81.85;100087.34;4170830;28;20041;-62
2023/12/21 02:57:40;;;;;;;1.05;0.73;;;;;;;6.78;81.54;100078.09;4179277;28;20041;-62
2023/12/21 02:59:43;;;;;;;1.52;1.10;;;;;;;6.85;81.20;100082.59;4178670;28;20048;-62
2023/12/21 03:01:46;;;;;;;2.58;1.20;;;;;;;6.75;81.97;100071.16;4178280;28;20045;-62
2023/12/21 03:03:49;;;;;;;1.73;0.90;;;;;;;6.75;81.57;100067.72;4180098;28;20054;-62
2023/12/21 03:05:52;;;;;;;1.70;1.13;;;;;;;6.64;82.05;100076.06;4179134;28;20095;-61
2023/12/21 03:07:54;;;;;;;2.42;1.17;;;;;;;6.73;82.13;100079.69;4171731;28;20524;-62
2023/12/21 03:09:57;;;;;;;4.20;1.00;;;;;;;6.71;82.41;100081.38;4178516;28;20077;-62
2023/12/21 03:12:00;;;;;;;1.80;1.00;;;;;;;6.70;82.47;100077.94;4178870;28;20159;-60
2023/12/21 03:14:05;;;;;;;2.88;1.00;;;;;;;6.80;82.28;100081.59;4168176;28;20037;-61
2023/12/21 03:16:09;;;;;;;3.53;1.50;;;;;;;6.75;82.49;100083.22;4169085;28;20052;-61
2023/12/21 03:18:11;;;;;;;2.20;1.05;;;;;;;6.64;82.46;100076.06;4178768;28;20471;-61
2023/12/21 03:20:15;;;;;;;2.42;1.35;;;;;;;6.69;82.70;100068.44;4179495;28;20527;-60
2023/12/21 03:22:18;;;;;;;1.63;0.90;;;;;;;6.75;82.79;100057.38;4178863;28;20048;-61
2023/12/21 03:24:21;;;;;;;2.08;1.10;;;;;;;6.81;82.51;100068.69;4176762;28;20041;-60
2023/12/21 03:26:25;;;;;;;2.30;1.08;;;;;;;6.86;82.16;100058.47;4179005;28;20441;-61
2023/12/21 03:28:26;;;;;;;1.92;1.10;;;;;;;6.85;82.14;100069.66;4172944;28;20045;-61
2023/12/21 03:30:31;;;;;;;2.50;1.10;;;;;;;6.95;81.85;100071.63;4166576;28;20045;-62
2023/12/21 03:32:35;;;;;;;2.88;1.00;;;;;;;6.93;81.89;100055.19;4179878;28;20127;-62
2023/12/21 03:34:37;;;;;;;;;;;;;;;6.88;81.97;100058.50;4180402;28;20080;-62
2023/12/21 03:36:40;;;;;;;2.83;0.90;;;;;;;6.91;82.20;100041.38;4180059;28;19928;-62
2023/12/21 03:38:43;;;;;;;2.22;1.05;;;;;;;6.97;82.02;100038.91;4180745;28;20043;-61
2023/12/21 03:40:46;;;;;;;1.30;0.80;;;;;;;6.99;81.85;100032.09;4182343;28;20041;-61
2023/12/21 03:42:52;;;;;;;0.90;0.80;;;;;;;6.88;82.16;100028.38;4180087;28;20095;-61
2023/12/21 03:44:54;;;;;;;1.38;1.10;;;;;;;6.90;81.93;100029.28;4179973;28;20386;-61
2023/12/21 03:47:00;;;;;;;0.88;0.77;;;;;;;6.87;82.01;100042.13;4179975;28;20048;-61
2023/12/21 03:49:03;;;;;;;2.10;1.00;;;;;;;7.00;81.94;100027.78;4180417;28;20037;-62
2023/12/21 03:51:06;;;;;;;1.55;0.90;;;;;;;6.96;82.39;100019.06;4181077;28;20067;-62
2023/12/21 03:53:09;;;;;;;1.00;0.80;;;;;;;6.95;82.30;100013.88;4177402;28;20443;-62
2023/12/21 03:55:12;;;;;;;0.65;0.65;;;;;;;6.91;82.50;100012.94;4182479;28;20068;-62
2023/12/21 03:57:15;;;;;;;2.08;0.88;;;;;;;6.87;82.09;100010.28;4169198;28;20049;-62
2023/12/21 03:59:17;;;;;;;0.93;0.75;;;;;;;6.88;82.17;100002.53;4166363;28;20469;-61
2023/12/21 04:01:25;;;;;;;4.10;0.88;;;;;;;6.80;82.93;99992.06;4177004;28;20112;-62
2023/12/21 04:03:29;;;;;;;1.75;0.70;;;;;;;6.81;82.47;99990.34;4180645;28;20493;-61
2023/12/21 04:05:31;;;;;;;2.00;0.82;;;;;;;6.94;82.25;99981.13;4172822;28;20045;-62
2023/12/21 04:07:34;;;;;;;1.92;1.00;;;;;;;6.88;82.77;99983.56;4181621;28;20124;-62
2023/12/21 04:09:38;;;;;;;0.80;0.75;;;;;;;6.90;82.84;99969.00;4181674;28;20045;-61
2023/12/21 04:11:41;;;;;;;1.67;0.80;;;;;;;6.87;82.81;99979.25;4180972;28;20556;-62
2023/12/21 04:13:44;;;;;;;1.50;0.80;;;;;;;6.87;83.12;99974.09;4160971;28;20068;-62
2023/12/21 04:15:47;;;;;;;1.55;0.80;;;;;;;6.94;82.71;99974.25;4180318;28;20037;-61
2023/12/21 04:17:50;;;;;;;1.92;0.70;;;;;;;6.87;83.10;99974.09;4179970;28;20068;-60
2023/12/21 04:19:54;;;;;;;1.73;0.90;;;;;;;6.80;83.53;99970.50;4182372;28;20068;-63
2023/12/21 04:21:57;;;;;;;0.55;0.55;;;;;;;6.84;83.43;99979.19;4171294;28;20045;-61
2023/12/21 04:24:00;;;;;;;1.20;0.80;;;;;;;6.84;83.28;99980.06;4169937;28;20071;-62
2023/12/21 04:26:03;;;;;;;2.38;1.05;;;;;;;6.87;83.18;99974.09;4181388;28;20554;-60
2023/12/21 04:28:06;;;;;;;0.70;0.70;;;;;;;6.98;82.94;99964.88;4172882;28;20049;-61
2023/12/21 04:30:11;;;;;;;2.22;0.93;;;;;;;6.90;83.24;99958.66;4181564;28;20037;-61
2023/12/21 04:32:13;;;;;;;1.23;0.93;;;;;;;6.83;83.08;99952.47;4179022;28;20051;-61
2023/12/21 04:34:16;;;;;;;1.15;0.85;;;;;;;6.78;83.63;99961.84;4181626;28;20556;-61
2023/12/21 04:36:21;;;;;;;1.65;0.68;;;;;;;6.93;83.52;99946.66;4175262;28;20564;-61
2023/12/21 04:38:27;;;;;;;0.60;0.60;;;;;;;6.96;83.38;99938.09;4173001;28;20086;-61
2023/12/21 04:40:29;;;;;;;1.33;0.77;;;;;;;6.89;82.94;99926.78;4181594;28;20159;-61
2023/12/21 04:42:32;;;;;;;0.88;0.80;;;;;;;6.98;82.99;99921.78;4174346;28;20079;-59
2023/12/21 04:44:35;;;;;;;3.00;0.98;;;;;;;6.92;83.80;99920.78;4176006;28;20033;-61
2023/12/21 04:46:38;;;;;;;0.60;0.60;;;;;;;6.92;83.61;99916.50;4173973;28;20140;-61
2023/12/21 04:48:41;;;;;;;1.67;0.70;;;;;;;6.95;83.55;99911.41;4174399;28;20090;-62
2023/12/21 04:50:44;;;;;;;1.25;0.70;;;;;;;6.96;83.66;99910.53;4179824;28;20045;-61
2023/12/21 04:52:49;;;;;;;1.27;0.60;;;;;;;6.97;83.23;99914.88;4180888;28;20052;-61
2023/12/21 04:54:52;;;;;;;1.50;0.77;;;;;;;7.07;83.22;99907.31;4181227;28;20041;-60
2023/12/21 04:56:55;;;;;;;0.40;0.40;;;;;;;7.09;83.25;99898.72;4171066;28;20049;-60
2023/12/21 04:58:58;;;;;;;0.95;0.57;;;;;;;7.17;82.97;99901.47;4165599;28;20103;-61
2023/12/21 05:01:01;;;;;;;2.40;0.68;;;;;;;7.15;82.81;99908.31;4171811;28;20124;-62
2023/12/21 05:03:05;;;;;;;0.90;0.70;;;;;;;7.15;83.44;99910.91;4175726;28;20049;-62
2023/12/21 05:05:08;;;;;;;1.90;0.55;;;;;;;7.38;82.22;99907.88;4173565;28;20551;-62
2023/12/21 05:07:11;;;;;;;0.88;0.50;;;;;;;7.26;82.17;99900.78;4182222;28;20045;-62
2023/12/21 05:09:14;;;;;;;0.65;0.60;;;;;;;7.19;82.54;99894.63;4181335;28;20045;-60
2023/12/21 05:11:17;;;;;;;0.75;0.75;;;;;;;7.33;82.29;99888.00;4181579;28;20041;-62
2023/12/21 05:13:20;;;;;;;0.88;0.45;;;;;;;7.27;82.23;99882.72;4181501;28;20132;-61
2023/12/21 05:15:23;;;;;;;1.05;0.60;;;;;;;7.22;82.74;99889.50;4186556;28;20056;-62
2023/12/21 05:17:26;;;;;;;1.20;0.60;;;;;;;7.19;82.73;99876.50;4180151;28;20071;-61
2023/12/21 05:19:28;;;;;;;1.75;0.60;;;;;;;7.26;82.50;99870.63;4176124;28;20126;-60
2023/12/21 05:21:31;;;;;;;1.50;0.65;;;;;;;7.38;82.22;99866.50;4179705;28;20037;-62
2023/12/21 05:23:33;;;;;;;0.52;0.47;;;;;;;7.20;82.81;99852.41;4178311;28;20025;-61
2023/12/21 05:25:38;;;;;;;0.73;0.35;;;;;;;7.32;82.49;99839.69;4179975;28;20029;-61
2023/12/21 05:27:42;;;;;;;1.00;0.40;;;;;;;7.31;82.64;99837.94;4176851;28;20509;-61
2023/12/21 05:29:45;;;;;;;2.20;0.80;;;;;;;7.37;82.41;99836.31;4179748;28;20044;-64
2023/12/21 05:31:48;;;;;;;0.82;0.70;;;;;;;7.28;82.44;99842.19;4179042;28;20136;-60
2023/12/21 05:33:51;;;;;;;0.73;0.60;;;;;;;7.46;81.98;99844.22;4165186;28;20033;-61
2023/12/21 05:35:54;;;;;;;2.67;0.65;;;;;;;7.37;82.60;99838.91;4165146;28;20063;-61
2023/12/21 05:37:57;;;;;;;0.40;0.40;;;;;;;7.22;82.81;99837.78;4163833;28;20148;-62
2023/12/21 05:40:00;;;;;;;1.55;0.50;;;;;;;7.28;82.85;99837.03;4165155;28;20376;-61
2023/12/21 05:42:04;;;;;;;1.17;0.68;;;;;;;7.27;83.24;99841.34;4177024;28;20041;-62
2023/12/21 05:44:07;;;;;;;;;;;;;;;7.20;83.23;99836.00;4168199;28;20033;-61
2023/12/21 05:46:10;;;;;;;0.50;0.50;;;;;;;7.23;83.38;99833.47;4167722;28;19952;-60
2023/12/21 05:48:13;;;;;;;1.38;0.40;;;;;;;7.22;83.56;99837.78;4163603;28;20033;-62
2023/12/21 05:50:16;;;;;;;0.80;0.40;;;;;;;7.20;83.39;99826.56;4193783;28;20044;-60
2023/12/21 05:52:19;;;;;;;0.40;0.40;;;;;;;7.22;83.61;99827.44;4179256;28;20037;-61
2023/12/21 05:54:22;;;;;;;0.50;0.50;;;;;;;7.31;83.59;99826.75;4181301;28;20060;-61
2023/12/21 05:56:25;;;;;;;0.40;0.40;;;;;;;7.25;83.59;99829.22;4181265;28;20072;-61
2023/12/21 05:58:29;;;;;;;0.95;0.47;;;;;;;7.30;83.49;99820.72;4181464;28;20561;-61
2023/12/21 06:00:32;;;;;;;0.50;0.50;;;;;;;7.19;84.14;99808.44;4180005;28;20064;-61
2023/12/21 06:02:35;;;;;;;1.63;0.60;;;;;;;7.32;83.49;99813.84;4195583;28;20044;-61
2023/12/21 06:04:37;;;;;;;0.80;0.38;;;;;;;7.37;83.42;99806.16;4173017;28;20033;-61
2023/12/21 06:06:40;;;;;;;0.95;0.60;;;;;;;7.40;83.60;99816.53;4181335;28;20047;-61
2023/12/21 06:08:44;;;;;;;0.40;0.40;;;;;;;7.45;83.24;99808.88;4181226;28;20072;-62
2023/12/21 06:10:47;;;;;;;0.32;0.32;;;;;;;7.34;83.57;99807.00;4180732;28;20044;-61
2023/12/21 06:12:50;;;;;;;0.77;0.50;;;;;;;7.31;83.61;99801.75;4181145;28;20037;-61
2023/12/21 06:14:53;;;;;;;0.60;0.50;;;;;;;7.31;84.28;99791.41;4170412;28;20037;-61
2023/12/21 06:16:56;;;;;;;0.82;0.40;;;;;;;7.32;83.70;99798.31;4172887;28;20124;-61
2023/12/21 06:19:00;;;;;;;0.45;0.40;;;;;;;7.46;83.78;99795.09;4177953;28;20061;-61
2023/12/21 06:21:03;;;;;;;2.05;0.30;;;;;;;7.51;83.45;99783.97;4166468;28;20038;-62
2023/12/21 06:23:05;;;;;;;0.40;0.40;;;;;;;7.47;82.93;99782.19;4179550;28;20080;-61
2023/12/21 06:25:09;;;;;;;0.47;0.30;;;;;;;7.41;83.95;99791.56;4167948;28;20546;-61
2023/12/21 06:27:12;;;;;;;0.30;0.30;;;;;;;7.48;83.65;99788.25;4164704;28;20038;-61
2023/12/21 06:29:14;;;;;;;0.75;0.35;;;;;;;7.47;83.49;99789.06;4164868;28;20080;-62
2023/12/21 06:31:18;;;;;;;0.85;0.43;;;;;;;7.57;83.04;99790.97;4166746;28;20096;-62
2023/12/21 06:33:21;;;;;;;0.40;0.38;;;;;;;7.53;83.21;99784.00;4177644;28;20123;-61
2023/12/21 06:35:24;;;;;;;0.95;0.30;;;;;;;7.48;83.75;99780.47;4180519;28;20041;-61
2023/12/21 06:37:27;;;;;;;0.40;0.40;;;;;;;7.40;83.56;99784.66;4177894;28;20051;-61
2023/12/21 06:39:31;;;;;;;0.50;0.50;;;;;;;7.49;83.59;99777.03;4177087;28;20116;-62
2023/12/21 06:41:33;;;;;;;2.25;0.68;;;;;;;7.43;84.21;99785.59;4179491;28;20376;-61
2023/12/21 06:43:36;;;;;;;0.30;0.30;;;;;;;7.55;83.72;99777.16;4164498;28;20041;-62
2023/12/21 06:45:39;;;;;;;0.40;0.40;;;;;;;7.57;83.34;99779.75;4164069;28;20435;-62
2023/12/21 06:47:43;;;;;;;1.75;0.32;;;;;;;7.62;83.20;99780.69;4175545;28;20033;-60
2023/12/21 06:49:46;;;;;;;1.45;0.45;;;;;;;7.60;83.49;99762.56;4179525;28;20041;-62
2023/12/21 06:51:49;;;;;;;0.25;0.20;;;;;;;7.56;83.18;99762.50;4166217;28;20060;-62
2023/12/21 06:53:52;;;;;;;1.02;0.32;;;;;;;7.55;83.58;99766.81;4180247;28;20124;-61
2023/12/21 06:55:54;;;;;;;0.22;0.22;;;;;;;7.48;84.12;99758.06;4180251;28;20043;-61
2023/12/21 06:58:17;;;;;;;0.40;0.40;;;;;;;7.50;84.09;99750.31;4176592;28;20104;-62
2023/12/21 07:00:20;;;;;;;0.40;0.40;;;;;;;7.57;83.94;99731.47;4166435;28;20045;-61
2023/12/21 07:02:23;;;;;;;0.40;0.38;;;;;;;7.73;83.36;99729.97;4171385;28;20041;-62
2023/12/21 07:04:27;;;;;;;1.02;0.50;;;;;;;7.75;83.18;99719.63;4172346;28;20506;-62
2023/12/21 07:06:29;;;;;;;0.63;0.63;;;;;;;7.76;82.93;99721.38;4166517;28;20094;-61
2023/12/21 07:08:32;;;;;;;1.65;0.40;;;;;;;7.65;83.65;99719.53;4180628;28;20033;-62
2023/12/21 07:10:35;;;;;;;0.63;0.50;;;;;;;7.78;83.00;99719.69;4180556;28;20090;-62
2023/12/21 07:12:38;;;;;;;1.23;0.40;;;;;;;7.69;83.29;99712.66;4179421;28;20057;-62
2023/12/21 07:14:41;;;;;;;0.32;0.32;;;;;;;7.76;83.41;99726.56;4183718;28;20045;-61
2023/12/21 07:16:43;;;;;;;0.30;0.30;;;;;;;7.71;83.63;99717.84;4182897;28;20132;-62
2023/12/21 07:18:46;;;;;;;0.30;0.30;;;;;;;7.68;83.69;99711.81;4182603;28;20037;-61
2023/12/21 07:20:49;;;;;;;0.30;0.30;;;;;;;7.72;83.46;99717.00;4168412;28;20041;-62
2023/12/21 07:22:53;;;;;;;0.40;0.40;;;;;;;7.72;83.70;99717.00;4183758;28;20124;-62
2023/12/21 07:24:56;;;;;;;0.45;0.45;;;;;;;7.73;83.63;99711.00;4172572;28;20050;-62
2023/12/21 07:26:59;;;;;;;0.90;0.50;;;;;;;7.83;83.04;99720.63;4172601;28;20037;-62
2023/12/21 07:29:01;;;;;;;0.75;0.40;;;;;;;7.76;83.54;99719.66;4178855;28;20084;-60
2023/12/21 07:31:04;;;;;;;1.75;0.50;;;;;;;7.81;83.15;99722.31;4167215;28;20041;-62
2023/12/21 07:33:06;;;;;;;0.47;0.40;;;;;;;7.77;83.53;99712.75;4180217;28;20040;-62
2023/12/21 07:35:09;;;;;;;0.75;0.40;;;;;;;7.79;83.50;99709.34;4183319;28;20041;-61
2023/12/21 07:37:16;;;;;;;0.40;0.40;;;;;;;7.89;83.41;99691.38;4182603;28;20159;-61
2023/12/21 07:39:19;;;;;;;1.45;0.50;;;;;;;7.79;83.17;99691.25;4182309;28;20047;-62
2023/12/21 07:41:24;;;;;;;0.50;0.50;;;;;;;7.65;83.76;99687.59;4183709;28;20067;-61
2023/12/21 07:43:30;;;;;;;0.55;0.45;;;;;;;7.79;83.77;99692.97;4183480;28;20044;-62
2023/12/21 07:45:33;;;;;;;0.85;0.40;;;;;;;7.79;83.26;99680.03;4181819;28;20044;-61
2023/12/21 07:47:36;;;;;;;0.65;0.40;;;;;;;7.78;83.66;99681.75;4180992;28;20139;-62
2023/12/21 07:49:38;;;;;;;1.55;0.50;;;;;;;7.72;83.76;99683.38;4175076;28;20041;-60
2023/12/21 07:51:40;;;;;;;0.40;0.40;;;;;;;7.71;83.84;99674.75;4182797;28;20383;-62
2023/12/21 07:53:46;;;;;;;1.50;0.38;;;;;;;7.72;83.95;99670.44;4181060;28;20136;-62
2023/12/21 07:55:49;;;;;;;1.30;0.50;;;;;;;7.74;83.96;99676.50;4182479;28;20048;-62
2023/12/21 07:57:52;;;;;;;0.47;0.47;;;;;;;7.73;84.17;99674.78;4181945;28;20063;-62
2023/12/21 07:59:55;;;;;;;0.30;0.30;;;;;;;7.78;84.08;99678.28;4171912;28;20068;-61
2023/12/21 08:01:58;;;;;;;0.63;0.40;;;;;;;7.79;83.77;99678.31;4179131;28;20044;-62
2023/12/21 08:04:01;;;;;;;1.15;0.50;;;;;;;7.77;84.02;99672.25;4183112;28;20049;-60
2023/12/21 08:06:05;;;;;;;0.43;0.43;;;;;;;7.82;83.85;99674.88;4182822;28;20499;-61
2023/12/21 08:08:07;;;;;;;0.32;0.32;;;;;;;7.85;84.09;99675.78;4181902;28;20074;-62
2023/12/21 08:10:11;;;;;;;4.50;0.70;;;;;;;7.81;84.04;99670.56;4168558;28;20068;-61
2023/12/21 08:12:14;;;;;;;0.70;0.55;;;;;;;7.79;84.09;99682.63;4178511;28;20120;-62
2023/12/21 08:14:17;;;;;;;0.38;0.38;;;;;;;7.75;84.39;99684.28;4180023;28;20087;-60
2023/12/21 08:16:20;;;;;;;0.60;0.50;;;;;;;7.84;84.22;99675.75;4179714;28;20053;-61
2023/12/21 08:18:23;;;;;;;0.47;0.47;;;;;;;7.91;83.82;99675.00;4181409;28;20049;-61
2023/12/21 08:20:25;;;;;;;0.40;0.40;;;;;;;7.92;84.17;99660.34;4182759;28;20043;-62
2023/12/21 08:22:30;;;;;;;1.58;0.50;;;;;;;7.97;83.80;99649.22;4182890;28;20040;-62
2023/12/21 08:24:33;;;;;;;0.50;0.30;;;;;;;7.97;83.72;99638.84;4179528;28;20065;-64
2023/12/21 08:26:39;;;;;;;0.50;0.47;;;;;;;7.94;83.57;99654.31;4173866;28;20045;-67
2023/12/21 08:28:42;;;;;;;0.28;0.28;;;;;;;7.98;83.58;99657.84;4181076;28;20045;-66
2023/12/21 08:30:44;;;;;;;1.58;0.40;;;;;;;7.99;83.80;99649.22;4182305;28;20044;-66
2023/12/21 08:32:48;;;;;;;0.50;0.40;;;;;;;7.96;83.83;99649.19;4179895;28;20557;-67
2023/12/21 08:34:51;;;;;;;1.35;0.32;;;;;;;7.98;83.70;99643.16;4180179;28;20037;-67
2023/12/21 08:36:54;;;;;;;0.75;0.38;;;;;;;7.98;84.04;99640.56;4180514;28;20060;-66
2023/12/21 08:38:57;;;;;;;0.30;0.30;;;;;;;8.03;83.58;99625.09;4182393;28;20041;-64
2023/12/21 08:41:02;;;;;;;0.30;0.30;;;;;;;8.03;83.71;99631.16;4176822;28;20041;-63
2023/12/21 08:43:07;;;;;;;0.32;0.32;;;;;;;8.03;83.89;99627.69;4181588;28;20117;-63
2023/12/21 08:45:10;;;;;;;0.20;0.20;;;;;;;8.09;83.47;99621.69;4181098;28;20065;-63
2023/12/21 08:47:13;;;;;;;0.43;0.43;;;;;;;8.07;84.12;99619.09;4174985;28;20033;-63
2023/12/21 08:49:16;;;;;;;0.30;0.30;;;;;;;8.00;83.82;99610.41;4178817;28;20091;-64
2023/12/21 08:51:19;;;;;;;0.40;0.40;;;;;;;8.07;84.10;99605.28;4181752;28;20044;-64
2023/12/21 08:53:22;;;;;;;0.70;0.60;;;;;;;8.06;84.06;99596.69;4178170;28;20041;-64
2023/12/21 08:55:25;;;;;;;0.60;0.40;;;;;;;8.05;83.85;99610.47;4180640;28;20049;-64
2023/12/21 08:57:28;;;;;;;0.38;0.38;;;;;;;8.07;84.28;99613.06;4181347;28;20045;-64
2023/12/21 08:59:32;;;;;;;1.40;0.50;;;;;;;8.08;83.91;99607.91;4179766;28;20432;-64
2023/12/21 09:01:35;;;;;;;1.95;0.50;;;;;;;8.07;84.23;99592.34;4179615;28;20039;-64
2023/12/21 09:03:38;;;;;;;0.90;0.40;;;;;;;8.13;84.52;99577.75;4175660;28;20147;-65
2023/12/21 09:05:41;;;;;;;0.30;0.30;;;;;;;8.07;83.66;99567.31;4165231;28;20060;-64
2023/12/21 09:07:44;;;;;;;0.40;0.40;;;;;;;8.16;83.64;99556.19;4168806;28;20037;-65
2023/12/21 09:09:48;;;;;;;0.50;0.30;;;;;;;8.16;83.62;99554.50;4197214;28;20592;-64
2023/12/21 09:11:50;;;;;;;0.40;0.40;;;;;;;8.23;83.14;99558.00;4182252;28;20056;-65
2023/12/21 09:13:55;;;;;;;0.20;0.20;;;;;;;8.25;83.04;99550.22;4182158;28;20125;-65
2023/12/21 09:15:59;;;;;;;0.68;0.47;;;;;;;8.26;83.02;99552.84;4181882;28;20095;-64
2023/12/21 09:18:03;;;;;;;0.40;0.40;;;;;;;8.27;82.98;99533.88;4180451;28;20118;-65
2023/12/21 09:20:08;;;;;;;0.20;0.20;;;;;;;8.37;82.79;99534.81;4181699;28;20045;-65
2023/12/21 09:22:11;;;;;;;1.38;0.35;;;;;;;8.28;82.64;99527.84;4197240;28;20044;-65
2023/12/21 09:24:14;;;;;;;0.20;0.20;;;;;;;8.26;83.14;99523.50;4185078;28;20037;-65
2023/12/21 09:26:17;;;;;;;0.30;0.30;;;;;;;8.42;82.82;99507.22;4180546;28;20045;-64
2023/12/21 09:28:19;;;;;;;0.28;0.28;;;;;;;8.57;81.94;99506.47;4181808;28;20065;-65
2023/12/21 09:30:25;;;;;;;0.30;0.30;;;;;;;8.45;82.07;99496.91;4181836;28;20135;-65
2023/12/21 09:32:33;;;;;;;0.30;0.30;;;;;;;8.48;82.22;99509.03;4180521;28;20029;-65
2023/12/21 09:34:36;;;;;;;0.20;0.20;;;;;;;8.59;82.00;99496.16;4180252;28;20043;-65
2023/12/21 09:36:39;;;;;;;0.30;0.30;;;;;;;8.46;82.40;99487.44;4179137;28;20075;-65
2023/12/21 09:38:42;;;;;;;0.20;0.20;;;;;;;8.50;81.99;99468.47;4180503;28;20132;-65
2023/12/21 09:40:45;;;;;;;0.55;0.30;;;;;;;8.45;81.98;99481.38;4159306;28;20038;-65
2023/12/21 09:42:53;;;;;;;1.00;0.40;;;;;;;8.42;81.98;99485.63;4178996;28;20044;-65
2023/12/21 09:45:11;;;;;;;1.98;0.60;;;;;;;8.44;82.36;99465.78;4178069;28;20128;-65